Time;durP1;ratioP1;P1;durP2;ratioP2;P2;SDS_P1;SDS_P2;PMS_P1;PMS_P2;Temp;Humidity;BMP_temperature;BMP_pressure;BME280_temperature;BME280_humidity;BME280_pressure;Samples;Min_cycle;Max_cycle;Signal;HPM_P1;HPM_P2
2023/05/06 00:02:12;;;;;;;2.67;1.70;;;;;;;22.56;39.64;101681.09;5021320;28;20080;-82
2023/05/06 00:04:38;;;;;;;1.98;1.80;;;;;;;22.76;39.84;101715.94;5017624;28;20060;-82
2023/05/06 00:07:04;;;;;;;2.90;2.10;;;;;;;22.77;39.72;101717.59;4985844;28;20045;-81
2023/05/06 00:09:29;;;;;;;2.28;1.75;;;;;;;22.76;39.72;101713.28;5001452;28;20045;-82
2023/05/06 00:11:55;;;;;;;2.17;1.92;;;;;;;22.70;39.83;101720.16;5017162;28;20568;-82
2023/05/06 00:14:21;;;;;;;2.00;1.80;;;;;;;22.60;40.02;101708.91;4986457;28;20051;-82
2023/05/06 00:16:49;;;;;;;1.92;1.73;;;;;;;22.69;39.67;101721.16;5001979;28;20044;-79
2023/05/06 00:19:15;;;;;;;2.15;1.88;;;;;;;22.68;39.95;101722.16;5019154;28;20033;-79
2023/05/06 00:21:41;;;;;;;1.90;1.80;;;;;;;22.64;40.14;101715.56;5001452;28;20061;-80
2023/05/06 00:24:06;;;;;;;2.78;1.95;;;;;;;22.65;39.96;101719.84;5008097;28;20056;-79
2023/05/06 00:26:32;;;;;;;3.17;1.75;;;;;;;22.57;39.89;101715.41;5016211;28;20045;-80
2023/05/06 00:28:58;;;;;;;2.05;1.67;;;;;;;22.60;39.86;101715.06;4968032;28;20037;-79
2023/05/06 00:31:23;;;;;;;2.22;1.80;;;;;;;22.48;40.10;101705.03;4969267;28;20201;-79
2023/05/06 00:33:49;;;;;;;1.67;1.58;;;;;;;22.55;39.96;101708.63;4986800;28;20025;-79
2023/05/06 00:36:14;;;;;;;2.10;1.80;;;;;;;22.50;40.16;101698.56;4997296;28;20212;-79
2023/05/06 00:38:40;;;;;;;2.03;1.77;;;;;;;22.49;40.05;101704.03;4998722;28;20455;-79
2023/05/06 00:41:06;;;;;;;2.35;1.60;;;;;;;22.50;40.01;101708.34;5012130;28;20552;-80
2023/05/06 00:43:32;;;;;;;2.13;1.92;;;;;;;22.47;40.18;101711.34;4982441;28;20439;-81
2023/05/06 00:45:58;;;;;;;2.10;1.70;;;;;;;22.49;39.95;101717.31;4987832;28;20049;-79
2023/05/06 00:48:23;;;;;;;3.30;1.95;;;;;;;22.52;40.22;101711.66;4985966;28;20072;-81
2023/05/06 00:50:49;;;;;;;1.67;1.58;;;;;;;22.40;39.84;101697.94;5007453;28;20034;-80
2023/05/06 00:53:22;;;;;;;2.67;1.70;;;;;;;22.45;39.83;101703.56;4983710;28;20078;-81
2023/05/06 00:55:49;;;;;;;1.70;1.60;;;;;;;22.39;39.97;101698.94;4982789;28;20049;-80
2023/05/06 00:58:14;;;;;;;2.03;1.80;;;;;;;22.44;40.11;101712.53;4984257;28;20042;-80
2023/05/06 01:00:41;;;;;;;3.03;1.63;;;;;;;22.35;40.22;101702.97;5010292;28;20074;-80
2023/05/06 01:03:07;;;;;;;1.63;1.35;;;;;;;22.33;40.11;101699.66;4983792;28;20033;-80
2023/05/06 01:05:49;;;;;;;1.67;1.58;;;;;;;22.35;40.20;101710.91;4995933;28;20046;-80
2023/05/06 01:08:31;;;;;;;2.00;1.80;;;;;;;22.22;40.29;101676.16;5011744;28;20046;-80
2023/05/06 01:11:12;;;;;;;2.53;1.90;;;;;;;22.37;39.95;101697.47;4970878;28;20041;-80
2023/05/06 01:14:14;;;;;;;2.90;1.85;;;;;;;22.30;40.13;101695.53;4981088;28;20105;-80
2023/05/06 01:16:40;;;;;;;1.92;1.65;;;;;;;22.22;40.16;101684.94;4978253;28;20046;-79
2023/05/06 01:19:14;;;;;;;1.70;1.60;;;;;;;22.30;40.17;101689.41;5004817;28;20031;-80
2023/05/06 01:21:42;;;;;;;2.00;1.77;;;;;;;22.32;40.04;101684.75;4997530;28;20039;-80
2023/05/06 01:24:08;;;;;;;2.83;1.70;;;;;;;22.19;40.16;101673.88;5006801;28;20334;-81
2023/05/06 01:26:33;;;;;;;2.10;1.30;;;;;;;22.27;40.07;101693.22;4965597;28;20073;-80
2023/05/06 01:29:01;;;;;;;1.95;1.48;;;;;;;22.23;40.06;101678.63;4973628;28;20136;-80
2023/05/06 01:31:40;;;;;;;1.50;1.40;;;;;;;22.24;39.99;101690.06;4972010;28;20057;-80
2023/05/06 01:34:36;;;;;;;1.90;1.65;;;;;;;22.24;40.29;101695.38;4968747;28;20045;-81
2023/05/06 01:37:26;;;;;;;2.15;1.50;;;;;;;22.22;40.03;101695.56;5007185;28;20037;-80
2023/05/06 01:39:57;;;;;;;2.25;1.90;;;;;;;22.23;40.35;101688.44;4987437;28;20058;-80
2023/05/06 01:42:24;;;;;;;1.52;1.42;;;;;;;22.22;39.84;101684.94;4986284;28;20030;-80
2023/05/06 01:44:51;;;;;;;1.50;1.40;;;;;;;22.11;40.37;101676.59;4994955;28;20072;-80
2023/05/06 01:47:18;;;;;;;1.77;1.67;;;;;;;22.22;40.03;101686.78;5004005;28;20064;-80
2023/05/06 01:49:44;;;;;;;1.75;1.60;;;;;;;22.17;40.37;101676.69;4983371;28;20034;-79
2023/05/06 01:52:09;;;;;;;1.50;1.40;;;;;;;22.07;40.48;101672.59;4972060;28;20509;-80
2023/05/06 01:54:35;;;;;;;2.78;1.98;;;;;;;22.18;40.01;101688.97;5011320;28;20030;-80
2023/05/06 01:57:01;;;;;;;1.63;1.40;;;;;;;22.14;40.18;101677.06;4997363;28;20061;-80
2023/05/06 01:59:27;;;;;;;1.60;1.50;;;;;;;22.10;40.34;101673.09;4997147;28;20038;-80
2023/05/06 02:01:52;;;;;;;2.40;1.77;;;;;;;22.11;40.32;101684.53;4984178;28;20045;-80
2023/05/06 02:04:18;;;;;;;1.92;1.73;;;;;;;22.10;40.24;101682.88;4987146;28;20054;-80
2023/05/06 02:06:43;;;;;;;2.40;1.80;;;;;;;21.95;40.50;101667.66;4986929;28;20042;-80
2023/05/06 02:09:11;;;;;;;2.55;1.80;;;;;;;22.01;40.44;101676.75;4982995;28;20049;-80
2023/05/06 02:11:41;;;;;;;4.20;1.77;;;;;;;22.02;40.43;101681.06;4982932;28;20037;-80
2023/05/06 02:14:06;;;;;;;1.73;1.63;;;;;;;22.01;40.43;101682.88;4971004;28;20562;-80
2023/05/06 02:16:33;;;;;;;1.42;1.33;;;;;;;22.05;40.24;101680.72;4969293;28;20041;-80
2023/05/06 02:18:59;;;;;;;1.70;1.60;;;;;;;22.05;40.09;101682.56;4984977;28;20043;-80
2023/05/06 02:21:25;;;;;;;1.40;1.30;;;;;;;22.10;40.17;101693.50;4983348;28;20159;-80
2023/05/06 02:23:50;;;;;;;1.73;1.48;;;;;;;22.09;40.40;101691.84;4968704;28;20038;-80
2023/05/06 02:26:16;;;;;;;2.20;1.63;;;;;;;22.07;40.31;101685.84;4987758;28;20057;-80
2023/05/06 02:28:42;;;;;;;1.67;1.58;;;;;;;22.06;40.16;101689.50;4986968;28;20794;-80
2023/05/06 02:31:14;;;;;;;1.90;1.45;;;;;;;22.05;40.15;101690.50;4986352;28;20053;-80
2023/05/06 02:33:40;;;;;;;1.30;1.25;;;;;;;22.01;40.61;101698.78;4995841;28;21162;-80
2023/05/06 02:36:06;;;;;;;2.17;1.63;;;;;;;22.00;40.44;101686.53;4999814;28;20037;-81
2023/05/06 02:38:32;;;;;;;2.45;1.80;;;;;;;21.94;40.42;101691.72;4983105;28;20384;-80
2023/05/06 02:40:58;;;;;;;2.13;1.88;;;;;;;22.01;40.34;101698.78;5001718;28;20125;-80
2023/05/06 02:43:25;;;;;;;2.20;1.92;;;;;;;21.95;40.26;101680.09;5004767;28;20156;-80
2023/05/06 02:45:50;;;;;;;2.38;1.35;;;;;;;21.88;40.26;101674.66;5016065;28;20065;-80
2023/05/06 02:48:17;;;;;;;1.50;1.40;;;;;;;21.97;40.52;101692.19;5002415;28;20061;-80
2023/05/06 02:50:43;;;;;;;1.83;1.45;;;;;;;22.00;40.05;101685.72;5001846;28;20029;-79
2023/05/06 02:53:09;;;;;;;1.45;1.35;;;;;;;21.96;40.43;101695.84;5003150;28;20036;-80
2023/05/06 02:55:35;;;;;;;1.58;1.48;;;;;;;21.81;40.48;101663.09;5004368;28;20356;-80
2023/05/06 02:58:01;;;;;;;1.52;1.42;;;;;;;21.93;40.49;101672.31;5015014;28;20063;-80
2023/05/06 03:00:26;;;;;;;2.50;1.60;;;;;;;21.90;40.69;101685.94;5017081;28;20045;-80
2023/05/06 03:02:52;;;;;;;1.67;1.58;;;;;;;21.89;40.35;101663.03;5017771;28;20045;-82
2023/05/06 03:05:17;;;;;;;1.85;1.73;;;;;;;21.94;40.11;101678.47;4986803;28;20049;-80
2023/05/06 03:07:43;;;;;;;1.38;1.27;;;;;;;21.84;40.36;101667.22;4999403;28;20481;-80
2023/05/06 03:10:09;;;;;;;2.97;1.50;;;;;;;21.92;40.07;101683.09;5001032;28;20451;-80
2023/05/06 03:12:37;;;;;;;1.45;1.35;;;;;;;21.90;40.08;101683.28;4984334;28;20432;-79
2023/05/06 03:15:03;;;;;;;1.90;1.50;;;;;;;21.82;40.03;101666.56;5019255;28;20054;-79
2023/05/06 03:17:28;;;;;;;2.35;1.60;;;;;;;21.87;40.42;101680.13;5003278;28;20065;-79
2023/05/06 03:19:54;;;;;;;1.50;1.40;;;;;;;21.84;40.12;101677.81;4986755;28;20042;-80
2023/05/06 03:22:21;;;;;;;1.25;1.15;;;;;;;21.88;40.37;101689.72;5015464;28;20042;-80
2023/05/06 03:24:46;;;;;;;1.92;1.63;;;;;;;21.82;40.17;101671.88;5005114;28;20053;-81
2023/05/06 03:27:12;;;;;;;1.65;1.55;;;;;;;21.75;40.38;101670.91;5015468;28;20038;-80
2023/05/06 03:29:38;;;;;;;1.75;1.65;;;;;;;21.70;40.34;101658.16;5018093;28;20048;-80
2023/05/06 03:32:06;;;;;;;2.05;1.50;;;;;;;21.71;40.36;101667.75;5004036;28;20175;-80
2023/05/06 03:34:37;;;;;;;1.40;1.30;;;;;;;21.83;40.40;101687.59;5003613;28;20034;-81
2023/05/06 03:37:03;;;;;;;1.80;1.70;;;;;;;21.86;40.30;101689.06;5015635;28;20105;-80
2023/05/06 03:39:29;;;;;;;1.45;1.35;;;;;;;21.86;40.27;101695.22;4982598;28;20045;-80
2023/05/06 03:41:56;;;;;;;1.95;1.10;;;;;;;21.77;40.03;101682.19;5002772;28;20423;-80
2023/05/06 03:44:22;;;;;;;1.20;1.10;;;;;;;21.75;40.29;101682.34;4987522;28;20034;-80
2023/05/06 03:46:48;;;;;;;1.50;1.40;;;;;;;21.76;40.30;101691.13;5038954;28;20030;-80
2023/05/06 03:49:14;;;;;;;2.10;1.65;;;;;;;21.79;40.32;101706.69;5025496;28;20042;-81
2023/05/06 03:51:41;;;;;;;1.70;1.60;;;;;;;21.67;40.12;101674.41;5033040;28;20114;-81
2023/05/06 03:54:07;;;;;;;1.83;1.48;;;;;;;21.67;40.39;101685.00;5006491;28;20472;-81
2023/05/06 03:56:34;;;;;;;1.15;1.05;;;;;;;21.71;40.25;101700.41;5013423;28;20088;-80
2023/05/06 03:59:00;;;;;;;3.00;2.70;;;;;;;21.66;40.05;101678.88;5021506;28;20034;-80
2023/05/06 04:01:27;;;;;;;1.75;1.38;;;;;;;21.74;40.01;101693.94;5005641;28;20030;-80
2023/05/06 04:03:53;;;;;;;2.80;1.80;;;;;;;21.63;40.34;101684.53;5013394;28;20034;-80
2023/05/06 04:06:20;;;;;;;1.15;1.15;;;;;;;21.69;40.40;101691.78;5006791;28;20041;-80
2023/05/06 04:08:46;;;;;;;1.40;1.30;;;;;;;21.69;40.16;101688.31;5019737;28;20069;-80
2023/05/06 04:11:11;;;;;;;1.50;1.40;;;;;;;21.65;40.43;101687.84;5007617;28;20022;-80
2023/05/06 04:13:37;;;;;;;1.45;1.33;;;;;;;21.62;40.50;101688.19;4989378;28;20038;-80
2023/05/06 04:16:08;;;;;;;1.40;1.30;;;;;;;21.68;40.08;101695.44;5001196;28;20147;-80
2023/05/06 04:18:38;;;;;;;1.40;1.30;;;;;;;21.71;40.60;101702.22;5001105;28;20033;-80
2023/05/06 04:21:10;;;;;;;1.60;1.50;;;;;;;21.67;40.08;101698.28;5003597;28;20048;-80
2023/05/06 04:23:37;;;;;;;1.30;1.20;;;;;;;21.57;40.28;101687.88;4985996;28;20056;-80
2023/05/06 04:26:03;;;;;;;1.35;1.25;;;;;;;21.70;40.10;101704.03;4987826;28;20034;-80
2023/05/06 04:28:32;;;;;;;0.93;0.93;;;;;;;21.63;40.50;101694.31;4996394;28;20049;-80
2023/05/06 04:30:57;;;;;;;1.23;1.23;;;;;;;21.67;40.12;101703.56;5009776;28;20042;-80
2023/05/06 04:33:31;;;;;;;1.33;1.20;;;;;;;21.69;40.07;101722.78;5002740;28;20041;-80
2023/05/06 04:35:59;;;;;;;1.20;1.10;;;;;;;21.63;40.46;101711.03;5001901;28;20030;-81
2023/05/06 04:38:30;;;;;;;1.58;1.20;;;;;;;21.70;40.36;101730.56;5003235;28;21681;-80
2023/05/06 04:40:56;;;;;;;1.77;1.33;;;;;;;21.66;40.05;101712.53;5020139;28;20085;-80
2023/05/06 04:43:22;;;;;;;1.35;1.25;;;;;;;21.72;40.31;101733.03;5003561;28;20643;-80
2023/05/06 04:45:54;;;;;;;1.42;1.33;;;;;;;21.57;40.26;101706.44;5014899;28;20197;-80
2023/05/06 04:48:24;;;;;;;1.05;1.02;;;;;;;21.64;40.09;101723.28;5009510;28;20041;-80
2023/05/06 04:50:52;;;;;;;1.08;0.98;;;;;;;21.60;40.09;101711.38;4994894;28;20041;-80
2023/05/06 04:53:17;;;;;;;1.35;1.27;;;;;;;21.65;40.23;101729.41;4993886;28;20056;-80
2023/05/06 04:55:43;;;;;;;1.15;1.05;;;;;;;21.67;40.18;101730.91;5018013;28;20038;-81
2023/05/06 04:58:09;;;;;;;1.30;1.20;;;;;;;21.53;40.11;101704.25;4999830;28;20026;-80
2023/05/06 05:00:34;;;;;;;0.80;0.80;;;;;;;21.57;39.92;101708.25;5002431;28;20049;-80
2023/05/06 05:03:02;;;;;;;1.27;1.17;;;;;;;21.61;39.91;101721.00;5001674;28;20045;-80
2023/05/06 05:05:28;;;;;;;1.27;1.13;;;;;;;21.61;39.99;101713.03;5018361;28;20038;-80
2023/05/06 05:07:55;;;;;;;2.63;0.95;;;;;;;21.59;40.05;101719.50;5020785;28;20133;-80
2023/05/06 05:10:21;;;;;;;1.30;1.17;;;;;;;21.66;40.26;101731.91;5019784;28;20041;-79
2023/05/06 05:12:49;;;;;;;1.10;1.10;;;;;;;21.51;40.07;101719.50;5020956;28;20030;-79
2023/05/06 05:15:14;;;;;;;2.03;1.10;;;;;;;21.64;40.10;101735.72;5009253;28;20049;-79
2023/05/06 05:17:40;;;;;;;1.25;1.17;;;;;;;21.60;40.28;101732.59;5008424;28;20037;-80
2023/05/06 05:20:07;;;;;;;1.40;1.25;;;;;;;21.59;40.20;101735.41;5002569;28;20045;-80
2023/05/06 05:22:32;;;;;;;1.27;1.17;;;;;;;21.45;40.01;101718.38;5015966;28;20033;-80
2023/05/06 05:24:59;;;;;;;0.95;0.95;;;;;;;21.64;39.95;101748.97;5039091;28;20042;-81
2023/05/06 05:27:24;;;;;;;0.93;0.93;;;;;;;21.58;40.30;101739.06;5006105;28;20040;-80
2023/05/06 05:29:53;;;;;;;1.17;1.08;;;;;;;21.61;40.09;101736.91;5004309;28;20041;-79
2023/05/06 05:32:20;;;;;;;1.23;1.13;;;;;;;21.57;40.20;101737.41;4991237;28;20780;-80
2023/05/06 05:34:46;;;;;;;1.33;1.25;;;;;;;21.63;40.14;101748.16;5014804;28;20067;-80
2023/05/06 05:37:12;;;;;;;1.50;1.30;;;;;;;21.52;40.19;101740.53;5006799;28;20175;-80
2023/05/06 05:39:37;;;;;;;0.73;0.73;;;;;;;21.57;39.99;101745.34;5006288;28;20064;-79
2023/05/06 05:42:04;;;;;;;1.20;1.10;;;;;;;21.62;39.98;101753.63;4989559;28;20463;-79
2023/05/06 05:44:32;;;;;;;1.17;1.08;;;;;;;21.56;40.06;101746.34;5013011;28;20038;-79
2023/05/06 05:46:58;;;;;;;0.85;0.80;;;;;;;21.45;40.26;101730.78;4994536;28;20057;-79
2023/05/06 05:49:23;;;;;;;1.00;0.95;;;;;;;21.56;40.04;101741.06;5008200;28;20034;-80
2023/05/06 05:51:51;;;;;;;0.90;0.90;;;;;;;21.58;39.91;101750.50;5012511;28;20045;-80
2023/05/06 05:54:19;;;;;;;0.82;0.82;;;;;;;21.56;39.93;101739.22;4997657;28;20057;-79
2023/05/06 05:56:45;;;;;;;1.08;1.00;;;;;;;21.59;40.01;101752.13;5005387;28;20512;-79
2023/05/06 05:59:10;;;;;;;0.90;0.90;;;;;;;21.55;40.05;101742.06;5022092;28;20026;-79
2023/05/06 06:01:36;;;;;;;0.80;0.80;;;;;;;21.60;40.21;101751.13;5003114;28;20068;-79
2023/05/06 06:04:02;;;;;;;1.27;1.17;;;;;;;21.11;40.18;101673.53;5022339;28;20037;-80
2023/05/06 06:06:28;;;;;;;0.90;0.90;;;;;;;21.57;39.95;101748.84;5012857;28;20106;-79
2023/05/06 06:08:54;;;;;;;2.40;1.50;;;;;;;21.61;40.22;101757.28;5024425;28;20064;-80
2023/05/06 06:11:21;;;;;;;0.93;0.93;;;;;;;21.56;40.02;101759.59;5020009;28;20048;-80
2023/05/06 06:13:46;;;;;;;0.80;0.80;;;;;;;21.42;40.26;101738.09;4988464;28;20404;-80
2023/05/06 06:16:13;;;;;;;0.82;0.80;;;;;;;21.37;40.15;101731.66;5018683;28;20029;-80
2023/05/06 06:18:39;;;;;;;0.70;0.70;;;;;;;21.62;40.34;101759.75;5008123;28;20042;-79
2023/05/06 06:21:04;;;;;;;1.10;1.10;;;;;;;21.51;40.22;101751.31;5023919;28;20079;-79
2023/05/06 06:23:30;;;;;;;1.08;1.08;;;;;;;21.54;40.18;101756.28;5013658;28;20041;-80
2023/05/06 06:25:56;;;;;;;0.80;0.80;;;;;;;21.59;39.85;101769.88;5012668;28;20164;-79
2023/05/06 06:28:22;;;;;;;1.25;1.13;;;;;;;21.47;40.09;101755.31;5008629;28;20037;-79
2023/05/06 06:30:47;;;;;;;1.38;0.75;;;;;;;21.58;40.05;101779.66;5007326;28;20041;-80
2023/05/06 06:33:13;;;;;;;1.13;1.00;;;;;;;21.48;40.16;101770.19;5006999;28;20142;-80
2023/05/06 06:35:39;;;;;;;0.90;0.90;;;;;;;21.55;40.16;101785.28;5002625;28;20042;-80
2023/05/06 06:38:04;;;;;;;1.05;1.00;;;;;;;21.60;40.34;101785.59;5003417;28;20038;-79
2023/05/06 06:40:30;;;;;;;1.23;1.13;;;;;;;21.44;40.28;101761.78;4988502;28;20601;-78
2023/05/06 06:42:55;;;;;;;0.88;0.85;;;;;;;21.49;40.04;101763.91;4984122;28;20046;-78
2023/05/06 06:45:39;;;;;;;1.38;1.20;;;;;;;21.50;39.97;101777.00;4973608;28;20129;-78
2023/05/06 06:48:05;;;;;;;0.90;0.90;;;;;;;21.51;40.40;101781.28;4997895;28;20042;-78
2023/05/06 06:50:30;;;;;;;1.20;1.10;;;;;;;21.56;40.33;101792.25;4981870;28;20046;-78
2023/05/06 06:52:56;;;;;;;1.13;1.02;;;;;;;21.50;40.12;101786.75;4985961;28;20112;-79
2023/05/06 06:55:21;;;;;;;1.30;1.20;;;;;;;21.48;40.24;101780.81;4998492;28;20108;-78
2023/05/06 06:57:47;;;;;;;0.70;0.70;;;;;;;21.53;40.39;101787.25;4984780;28;20034;-78
2023/05/06 07:00:13;;;;;;;0.73;0.73;;;;;;;21.55;40.31;101790.59;5004630;28;20053;-77
2023/05/06 07:02:38;;;;;;;0.93;0.93;;;;;;;21.53;40.20;101797.03;4968351;28;20065;-78
2023/05/06 07:05:04;;;;;;;1.02;1.00;;;;;;;21.54;40.12;101788.91;4981974;28;20049;-78
2023/05/06 07:07:30;;;;;;;1.35;1.20;;;;;;;21.49;40.03;101777.16;4987531;28;20030;-80
2023/05/06 07:09:56;;;;;;;0.88;0.88;;;;;;;21.49;39.88;101782.47;4982313;28;20050;-78
2023/05/06 07:12:23;;;;;;;1.00;1.00;;;;;;;21.58;40.27;101795.53;4997106;28;20452;-78
2023/05/06 07:14:49;;;;;;;0.77;0.77;;;;;;;21.56;39.76;101778.16;5000688;28;20109;-78
2023/05/06 07:17:14;;;;;;;1.15;1.15;;;;;;;21.58;40.09;101784.94;4980689;28;20042;-79
2023/05/06 07:19:40;;;;;;;1.58;1.48;;;;;;;21.56;40.13;101792.25;4970037;28;20030;-77
2023/05/06 07:22:05;;;;;;;1.23;1.20;;;;;;;21.51;40.21;101781.28;4981339;28;20061;-79
2023/05/06 07:24:31;;;;;;;1.98;1.15;;;;;;;21.63;40.41;101792.38;4970380;28;20057;-82
2023/05/06 07:26:57;;;;;;;1.15;1.08;;;;;;;21.77;39.98;101772.31;4979374;28;20045;-80
2023/05/06 07:29:23;;;;;;;1.30;1.20;;;;;;;21.87;39.75;101779.06;4949678;28;20057;-80
2023/05/06 07:31:48;;;;;;;1.20;1.20;;;;;;;21.96;39.29;101785.19;4964791;28;20038;-79
2023/05/06 07:34:14;;;;;;;1.35;1.25;;;;;;;22.06;39.43;101792.97;4980691;28;20046;-81
2023/05/06 07:36:41;;;;;;;1.75;1.10;;;;;;;21.91;39.73;101782.22;4985741;28;20053;-80
2023/05/06 07:39:07;;;;;;;1.95;1.30;;;;;;;22.02;39.42;101797.75;4984429;28;20034;-80
2023/05/06 07:41:33;;;;;;;1.40;1.30;;;;;;;22.01;39.63;101804.06;4991368;28;20045;-80
2023/05/06 07:43:58;;;;;;;2.03;1.30;;;;;;;21.88;39.70;101785.19;4985455;28;20045;-80
2023/05/06 07:46:24;;;;;;;1.30;1.20;;;;;;;21.96;39.39;101799.28;5013893;28;20045;-80
2023/05/06 07:48:50;;;;;;;1.52;1.40;;;;;;;22.03;39.47;101807.34;4981789;28;20625;-82
2023/05/06 07:51:15;;;;;;;1.40;1.30;;;;;;;22.03;39.66;101813.50;4982655;28;20054;-82
2023/05/06 07:53:41;;;;;;;1.20;1.10;;;;;;;21.90;39.42;101797.31;4984121;28;20038;-80
2023/05/06 07:56:06;;;;;;;1.60;1.50;;;;;;;21.89;39.81;101792.97;4979736;28;20046;-80
2023/05/06 07:58:32;;;;;;;2.58;1.88;;;;;;;21.86;39.70;101788.00;4995429;28;20037;-80
2023/05/06 08:00:58;;;;;;;1.95;1.38;;;;;;;21.97;39.62;101808.88;4998610;28;20468;-80
2023/05/06 08:03:24;;;;;;;1.40;1.30;;;;;;;21.85;39.60;101789.00;4982102;28;20034;-80
2023/05/06 08:05:50;;;;;;;1.15;1.15;;;;;;;21.83;39.59;101779.56;4997321;28;20411;-79
2023/05/06 08:08:17;;;;;;;1.27;1.17;;;;;;;21.94;39.64;101792.47;4980535;28;20582;-80
2023/05/06 08:10:43;;;;;;;1.48;0.95;;;;;;;21.99;39.63;101800.75;4979923;28;20069;-81
2023/05/06 08:13:08;;;;;;;1.20;1.10;;;;;;;21.94;39.70;101800.44;4980892;28;20055;-80
2023/05/06 08:15:34;;;;;;;1.67;1.58;;;;;;;21.85;39.76;101786.34;4981197;28;20051;-81
2023/05/06 08:18:00;;;;;;;1.40;1.30;;;;;;;21.93;40.05;101799.63;4966095;28;20112;-80
2023/05/06 08:20:26;;;;;;;1.25;1.15;;;;;;;21.81;39.93;101784.22;4994229;28;20040;-80
2023/05/06 08:22:51;;;;;;;1.38;1.27;;;;;;;22.03;39.67;101813.50;4978070;28;20046;-80
2023/05/06 08:25:17;;;;;;;1.50;1.40;;;;;;;21.99;39.61;101803.41;4996484;28;20042;-79
2023/05/06 08:27:43;;;;;;;1.55;1.27;;;;;;;22.00;40.10;101800.56;4979999;28;20053;-79
2023/05/06 08:30:08;;;;;;;1.20;1.20;;;;;;;22.00;39.98;101807.72;4998842;28;20034;-79
2023/05/06 08:32:34;;;;;;;1.35;1.25;;;;;;;22.09;40.03;101812.03;4968051;28;20034;-79
2023/05/06 08:35:00;;;;;;;1.35;1.25;;;;;;;21.98;39.80;101791.13;5003121;28;20042;-79
2023/05/06 08:37:25;;;;;;;1.63;1.45;;;;;;;22.07;40.02;101803.41;4997976;28;20049;-79
2023/05/06 08:39:51;;;;;;;1.52;1.42;;;;;;;22.06;40.08;101796.44;5005265;28;20049;-79
2023/05/06 08:42:16;;;;;;;1.27;1.17;;;;;;;22.04;40.09;101801.06;4982762;28;20057;-79
2023/05/06 08:44:43;;;;;;;2.90;1.83;;;;;;;22.11;40.09;101812.69;4992997;28;20034;-79
2023/05/06 08:47:08;;;;;;;1.70;1.60;;;;;;;22.05;40.24;101804.56;4998518;28;20089;-79
2023/05/06 08:49:34;;;;;;;1.95;1.35;;;;;;;22.13;40.01;101802.72;5000752;28;20053;-79
2023/05/06 08:52:04;;;;;;;1.35;1.25;;;;;;;22.17;39.90;101814.66;4980914;28;20039;-79
2023/05/06 08:54:32;;;;;;;1.35;1.25;;;;;;;22.08;40.36;101804.22;4995435;28;20038;-79
2023/05/06 08:57:02;;;;;;;1.55;1.45;;;;;;;22.13;40.30;101808.03;5010556;28;20042;-80
2023/05/06 08:59:29;;;;;;;1.48;1.38;;;;;;;22.13;40.18;101799.25;4979947;28;20041;-79
2023/05/06 09:01:55;;;;;;;1.38;1.27;;;;;;;22.13;40.27;101808.03;5000568;28;20057;-80
2023/05/06 09:04:20;;;;;;;1.88;1.65;;;;;;;22.06;40.10;101791.13;4963469;28;20408;-81
2023/05/06 09:06:46;;;;;;;1.58;1.48;;;;;;;22.18;40.10;101816.28;4967259;28;20053;-80
2023/05/06 09:09:13;;;;;;;1.58;1.48;;;;;;;22.13;40.30;101810.69;4996120;28;20035;-80
2023/05/06 09:11:39;;;;;;;1.88;1.58;;;;;;;22.01;40.94;101786.31;4964636;28;20065;-81
2023/05/06 09:14:10;;;;;;;2.00;1.60;;;;;;;22.22;40.54;101808.81;4978131;28;20030;-80
2023/05/06 09:16:37;;;;;;;1.88;1.52;;;;;;;22.14;40.15;101791.13;4996002;28;20030;-80
2023/05/06 09:19:04;;;;;;;1.60;1.50;;;;;;;21.99;40.94;101784.84;4977675;28;20124;-80
2023/05/06 09:21:33;;;;;;;2.28;1.55;;;;;;;22.14;40.86;101801.72;4998232;28;20030;-80
2023/05/06 09:24:00;;;;;;;1.60;1.50;;;;;;;22.10;40.52;101783.69;5015217;28;20579;-81
2023/05/06 09:26:27;;;;;;;1.33;1.23;;;;;;;22.09;40.28;101780.19;4980206;28;20038;-81
2023/05/06 09:28:53;;;;;;;1.65;1.50;;;;;;;22.15;40.28;101776.03;4981067;28;20036;-79
2023/05/06 09:31:19;;;;;;;1.42;1.30;;;;;;;22.16;40.13;101794.41;4983561;28;20046;-81
2023/05/06 09:33:44;;;;;;;2.78;1.30;;;;;;;22.09;40.07;101779.38;4981112;28;20034;-80
2023/05/06 09:36:12;;;;;;;2.33;1.40;;;;;;;22.14;40.21;101791.13;4972783;28;20038;-80
2023/05/06 09:38:39;;;;;;;1.70;1.58;;;;;;;22.22;40.25;101795.56;5000375;28;20037;-79
2023/05/06 09:41:06;;;;;;;1.60;1.50;;;;;;;22.19;40.16;101785.28;4984086;28;20039;-80
2023/05/06 09:43:32;;;;;;;1.60;1.50;;;;;;;22.15;40.44;101783.97;4997064;28;20081;-81
2023/05/06 09:45:58;;;;;;;1.13;1.05;;;;;;;22.19;40.30;101799.38;4979295;28;20138;-80
2023/05/06 09:48:29;;;;;;;1.70;1.40;;;;;;;22.24;40.50;101799.69;4977303;28;20054;-80
2023/05/06 09:50:55;;;;;;;1.63;1.38;;;;;;;22.10;40.42;101796.94;4992469;28;20467;-80
2023/05/06 09:53:21;;;;;;;1.30;1.20;;;;;;;22.13;40.43;101786.81;4983935;28;20041;-80
2023/05/06 09:55:48;;;;;;;1.50;1.40;;;;;;;22.13;40.19;101780.69;5013181;28;20096;-80
2023/05/06 09:58:15;;;;;;;1.60;1.30;;;;;;;22.07;40.53;101770.75;4986966;28;20050;-80
2023/05/06 10:00:42;;;;;;;1.30;1.20;;;;;;;22.18;40.32;101786.28;4985890;28;20022;-79
2023/05/06 10:03:10;;;;;;;1.67;1.58;;;;;;;22.22;40.38;101793.72;5000741;28;20050;-80
2023/05/06 10:05:36;;;;;;;1.33;1.23;;;;;;;22.22;40.53;101792.91;4983588;28;20585;-80
2023/05/06 10:08:06;;;;;;;1.40;1.30;;;;;;;22.20;40.27;101786.94;5000287;28;20049;-80
2023/05/06 10:10:33;;;;;;;1.52;1.27;;;;;;;22.18;40.01;101789.78;4977798;28;20400;-80
2023/05/06 10:13:01;;;;;;;2.28;1.33;;;;;;;22.18;40.04;101780.97;4983180;28;20056;-81
2023/05/06 10:15:27;;;;;;;1.98;1.30;;;;;;;22.16;40.36;101782.97;4981982;28;20034;-80
2023/05/06 10:17:53;;;;;;;1.35;1.25;;;;;;;22.16;40.43;101778.50;4981880;28;20495;-80
2023/05/06 10:20:23;;;;;;;1.48;1.38;;;;;;;22.17;40.17;101788.13;5000884;28;20034;-80
2023/05/06 10:23:27;;;;;;;1.40;1.17;;;;;;;22.21;40.11;101780.63;4997557;28;20094;-79
2023/05/06 10:25:55;;;;;;;0.90;0.90;;;;;;;22.06;40.54;101767.25;4916655;29;20047;-79
2023/05/06 10:28:22;;;;;;;1.65;1.30;;;;;;;22.15;40.22;101773.38;4982860;28;20050;-79
2023/05/06 10:30:52;;;;;;;1.60;1.40;;;;;;;22.14;40.50;101769.91;4998893;28;20018;-80
2023/05/06 10:33:18;;;;;;;;;;;;;;;22.21;40.32;101777.97;4979604;28;20054;-79
2023/05/06 10:35:49;;;;;;;1.50;1.40;;;;;;;22.06;40.39;101759.31;4996212;28;19984;-79
2023/05/06 10:38:29;;;;;;;1.48;1.38;;;;;;;22.07;40.64;101755.66;4979451;28;20128;-80
2023/05/06 10:40:56;;;;;;;1.73;1.25;;;;;;;22.06;40.18;101751.34;4984279;28;20042;-80
2023/05/06 10:43:30;;;;;;;2.10;1.90;;;;;;;22.08;40.38;101746.69;4983743;28;20038;-80
2023/05/06 10:46:15;;;;;;;1.75;1.45;;;;;;;22.07;40.48;101752.16;4985390;28;20050;-79
2023/05/06 10:49:12;;;;;;;2.35;1.73;;;;;;;22.12;40.41;101760.47;4990843;28;20038;-80
2023/05/06 10:52:13;;;;;;;2.53;1.50;;;;;;;22.08;40.54;101765.25;4984916;28;20404;-79
2023/05/06 10:54:51;;;;;;;1.35;1.25;;;;;;;22.00;40.40;101752.00;5003915;28;20037;-80
2023/05/06 10:57:17;;;;;;;2.58;1.65;;;;;;;22.07;40.53;101753.00;4989160;28;20046;-79
2023/05/06 10:59:46;;;;;;;1.60;1.50;;;;;;;22.10;40.90;101768.59;5002915;28;20093;-80
2023/05/06 11:02:12;;;;;;;1.30;1.20;;;;;;;22.09;40.91;101766.13;4997942;28;20049;-80
2023/05/06 11:04:38;;;;;;;1.52;1.40;;;;;;;21.98;40.23;101743.41;4982532;28;20042;-80
2023/05/06 11:07:20;;;;;;;1.17;1.17;;;;;;;21.94;40.47;101731.50;5002097;28;20073;-79
2023/05/06 11:09:59;;;;;;;1.67;1.58;;;;;;;22.05;40.69;101762.94;4999367;28;20037;-80
2023/05/06 11:12:42;;;;;;;1.77;1.47;;;;;;;22.07;40.63;101762.78;4999661;28;20042;-80
2023/05/06 11:15:28;;;;;;;1.73;1.52;;;;;;;22.04;40.37;101753.31;4981949;28;20042;-79
2023/05/06 11:17:54;;;;;;;2.13;1.58;;;;;;;22.09;40.38;101751.03;4992332;28;20053;-80
2023/05/06 11:20:25;;;;;;;2.63;1.70;;;;;;;22.01;40.29;101740.41;4988753;28;20038;-80
2023/05/06 11:22:51;;;;;;;1.70;1.60;;;;;;;22.01;40.56;101729.78;4997098;28;20060;-79
2023/05/06 11:25:40;;;;;;;1.60;1.50;;;;;;;22.10;40.63;101743.91;5012837;28;20105;-79
2023/05/06 11:28:07;;;;;;;1.80;1.52;;;;;;;22.06;40.51;101735.44;4993780;28;20080;-80